Time;durP1;ratioP1;P1;durP2;ratioP2;P2;SDS_P1;SDS_P2;PMS_P1;PMS_P2;Temp;Humidity;BMP_temperature;BMP_pressure;BME280_temperature;BME280_humidity;BME280_pressure;Samples;Min_cycle;Max_cycle;Signal;HPM_P1;HPM_P2
2022/12/18 00:01:34;;;;;;;45.58;15.45;;;;;;;-4.11;81.03;100012.89;1694556;84;25502;-64
2022/12/18 00:04:04;;;;;;;40.70;13.40;;;;;;;-4.12;80.69;100018.44;1694688;84;25731;-64
2022/12/18 00:06:32;;;;;;;42.88;14.23;;;;;;;-4.15;80.59;100016.94;1694238;84;27831;-64
2022/12/18 00:09:00;;;;;;;57.73;17.98;;;;;;;-4.19;80.50;100028.53;1694435;84;25474;-64
2022/12/18 00:11:30;;;;;;;46.20;15.23;;;;;;;-4.14;80.63;100027.98;1694538;84;27453;-64
2022/12/18 00:13:59;;;;;;;38.20;13.78;;;;;;;-4.12;80.81;100023.79;1694113;84;25610;-63
2022/12/18 00:16:28;;;;;;;54.63;17.45;;;;;;;-4.10;80.46;100024.42;1694642;84;25691;-64
2022/12/18 00:19:00;;;;;;;52.55;17.42;;;;;;;-4.07;80.61;100034.27;1694601;84;25804;-63
2022/12/18 00:21:28;;;;;;;43.85;14.47;;;;;;;-4.04;80.64;100029.05;1694569;84;25679;-64
2022/12/18 00:23:56;;;;;;;36.48;13.48;;;;;;;-4.06;80.65;100031.91;1694393;83;27501;-63
2022/12/18 00:26:34;;;;;;;42.30;14.07;;;;;;;-4.11;79.92;100038.34;1694182;84;25443;-64
2022/12/18 00:29:05;;;;;;;39.27;13.60;;;;;;;-4.14;80.48;100032.00;1694648;84;25699;-64
2022/12/18 00:31:32;;;;;;;;;;;;;;;-4.12;80.57;100046.02;1695507;84;27897;-64
2022/12/18 00:33:59;;;;;;;38.33;12.90;;;;;;;-4.08;80.78;100043.82;1694505;84;25700;-64
2022/12/18 00:36:30;;;;;;;51.10;16.48;;;;;;;-4.10;80.54;100048.02;1694580;84;27418;-64
2022/12/18 00:38:57;;;;;;;;;;;;;;;-4.10;80.50;100052.03;1697120;84;25785;-64
2022/12/18 00:44:13;;;;;;;52.53;17.20;;;;;;;-4.13;80.23;100056.91;1694281;84;25671;-64
2022/12/18 00:46:42;;;;;;;42.48;14.25;;;;;;;-4.10;80.76;100057.39;1694761;84;25628;-64
2022/12/18 00:49:09;;;;;;;37.80;12.70;;;;;;;-4.12;80.22;100060.75;1694744;84;27437;-64
2022/12/18 00:51:36;;;;;;;41.53;15.10;;;;;;;-4.15;80.50;100062.45;1694526;84;25631;-64
2022/12/18 00:54:04;;;;;;;48.90;18.02;;;;;;;-4.19;79.91;100069.19;1694496;84;25683;-64
2022/12/18 00:56:31;;;;;;;44.53;14.93;;;;;;;-4.18;80.39;100079.72;1694455;84;25693;-64
2022/12/18 00:58:57;;;;;;;41.35;14.65;;;;;;;-4.18;80.56;100079.72;1694280;84;25584;-64
2022/12/18 01:01:24;;;;;;;58.83;20.70;;;;;;;-4.19;80.44;100081.23;1694240;84;29560;-64
2022/12/18 01:03:50;;;;;;;46.58;15.72;;;;;;;-4.14;80.57;100083.38;1694184;84;25639;-64
2022/12/18 01:06:17;;;;;;;60.25;22.32;;;;;;;-4.16;80.50;100082.21;1694714;84;25730;-64
2022/12/18 01:08:44;;;;;;;52.30;20.12;;;;;;;-4.17;80.46;100073.86;1694202;84;25689;-64
2022/12/18 01:11:15;;;;;;;48.85;18.40;;;;;;;-4.16;80.59;100081.72;1694248;84;25739;-64
2022/12/18 01:13:42;;;;;;;42.25;17.87;;;;;;;-4.09;80.64;100084.48;1694381;84;27431;-64
2022/12/18 01:16:14;;;;;;;43.63;15.55;;;;;;;-4.09;80.51;100082.33;1694118;84;25762;-64
2022/12/18 01:18:41;;;;;;;50.17;18.20;;;;;;;-4.08;80.43;100087.51;1694305;84;25663;-64
2022/12/18 01:21:14;;;;;;;45.70;15.70;;;;;;;-4.14;80.17;100088.23;1694194;84;25828;-65
2022/12/18 01:23:46;;;;;;;53.85;17.48;;;;;;;-4.12;80.66;100088.05;1694172;84;25443;-65
2022/12/18 01:26:16;;;;;;;55.48;16.77;;;;;;;-4.05;80.87;100091.66;1694485;84;27511;-65
2022/12/18 01:28:43;;;;;;;47.90;15.18;;;;;;;-4.03;80.47;100094.47;1694590;84;25628;-64
2022/12/18 01:31:24;;;;;;;41.63;14.70;;;;;;;-4.05;80.08;100098.35;1694391;84;25465;-65
2022/12/18 01:33:52;;;;;;;50.12;15.75;;;;;;;-4.03;80.49;100100.35;1694337;84;27902;-65
2022/12/18 01:36:30;;;;;;;47.08;15.18;;;;;;;-3.99;80.41;100099.46;1694767;84;25493;-65
2022/12/18 01:39:07;;;;;;;43.85;14.60;;;;;;;-3.98;80.41;100109.15;1694678;84;27403;-65
2022/12/18 01:45:17;;;;;;;46.80;14.93;;;;;;;-3.94;80.40;100109.95;1694404;84;25615;-65
2022/12/18 01:47:59;;;;;;;41.75;13.93;;;;;;;-3.85;80.71;100106.70;1694361;83;25784;-65
2022/12/18 01:50:42;;;;;;;39.18;14.63;;;;;;;-3.84;80.44;100109.70;1694411;84;25672;-66
2022/12/18 01:53:25;;;;;;;48.10;16.57;;;;;;;-3.90;80.11;100113.11;1694556;84;27389;-65
2022/12/18 01:56:08;;;;;;;47.53;17.52;;;;;;;-3.94;80.15;100120.66;1693638;84;25670;-65
2022/12/18 01:58:55;;;;;;;44.40;14.25;;;;;;;-3.95;80.18;100129.72;1693229;84;25442;-65
2022/12/18 02:01:26;;;;;;;43.48;14.45;;;;;;;-4.01;79.83;100129.63;1694461;84;25857;-66
2022/12/18 02:03:57;;;;;;;47.58;14.20;;;;;;;-3.98;80.34;100136.77;1694910;84;32213;-66
2022/12/18 02:06:38;;;;;;;39.00;13.55;;;;;;;-4.07;79.98;100134.68;1694470;84;27388;-66
2022/12/18 02:09:21;;;;;;;40.50;12.93;;;;;;;-4.10;79.98;100138.22;1694181;84;35152;-65
2022/12/18 02:12:02;;;;;;;42.75;13.93;;;;;;;-4.14;80.31;100141.78;1693668;84;25760;-65
2022/12/18 02:14:56;;;;;;;37.70;13.43;;;;;;;-4.09;80.11;100151.95;1693054;84;32919;-65
2022/12/18 02:17:27;;;;;;;44.40;14.38;;;;;;;-4.19;79.53;100150.34;1694633;84;25601;-65
2022/12/18 02:20:17;;;;;;;41.65;14.47;;;;;;;-4.13;80.35;100151.96;1694131;84;27494;-65
2022/12/18 02:23:10;;;;;;;48.90;17.00;;;;;;;-4.14;79.90;100152.48;1694625;84;25604;-65
2022/12/18 02:26:07;;;;;;;47.27;17.23;;;;;;;-4.09;80.45;100151.95;1694076;84;25482;-65
2022/12/18 02:28:45;;;;;;;53.68;17.67;;;;;;;-4.09;80.34;100144.73;1694450;84;25770;-65
2022/12/18 02:31:16;;;;;;;54.38;17.67;;;;;;;-4.09;80.25;100150.61;1693271;84;25706;-65
2022/12/18 02:33:45;;;;;;;55.28;16.73;;;;;;;-4.13;80.18;100152.80;1694433;84;27472;-65
2022/12/18 02:36:14;;;;;;;56.35;16.45;;;;;;;-4.12;80.41;100158.48;1694753;84;25693;-66
2022/12/18 02:38:43;;;;;;;48.65;16.05;;;;;;;-4.13;80.29;100160.84;1694528;84;25711;-65
2022/12/18 02:41:10;;;;;;;46.63;14.90;;;;;;;-4.11;80.41;100156.14;1694298;84;25836;-65
2022/12/18 02:43:37;;;;;;;44.18;16.30;;;;;;;-4.15;80.07;100154.81;1694370;84;25672;-65
2022/12/18 02:46:25;;;;;;;46.33;16.77;;;;;;;-4.16;80.51;100166.05;1694367;84;27422;-64
2022/12/18 02:48:56;;;;;;;48.38;15.95;;;;;;;-4.20;80.18;100170.08;1694181;84;25625;-64
2022/12/18 02:51:33;;;;;;;53.73;18.62;;;;;;;-4.24;80.41;100167.44;1694896;84;25481;-64
2022/12/18 02:54:08;;;;;;;51.30;16.93;;;;;;;-4.24;80.34;100167.94;1694421;84;26437;-64
2022/12/18 02:56:39;;;;;;;54.53;17.23;;;;;;;-4.30;80.30;100178.36;1694637;83;25687;-64
2022/12/18 02:59:10;;;;;;;53.68;15.88;;;;;;;-4.32;80.57;100184.39;1694738;84;27444;-64
2022/12/18 03:01:59;;;;;;;;;;;;;;;-4.30;80.85;100183.72;1695832;84;25667;-64
2022/12/18 03:04:36;;;;;;;55.92;17.42;;;;;;;-4.26;80.60;100185.52;1694352;84;25499;-64
2022/12/18 03:07:08;;;;;;;44.83;14.58;;;;;;;-4.27;80.38;100197.77;1694294;84;26455;-64
2022/12/18 03:09:42;;;;;;;50.83;15.95;;;;;;;-4.27;80.77;100194.56;1694725;84;25588;-65
2022/12/18 03:12:22;;;;;;;43.40;16.25;;;;;;;-4.23;80.54;100194.53;1694884;84;28100;-65
2022/12/18 03:15:06;;;;;;;46.95;15.38;;;;;;;-4.25;80.16;100193.89;1694224;84;25456;-65
2022/12/18 03:17:35;;;;;;;52.90;16.50;;;;;;;-4.28;80.62;100196.92;1694450;84;25641;-64
2022/12/18 03:20:10;;;;;;;50.73;16.35;;;;;;;-4.20;80.59;100196.85;1694629;84;25798;-65
2022/12/18 03:22:39;;;;;;;53.68;17.37;;;;;;;-4.25;80.13;100194.39;1693168;84;25672;-65
2022/12/18 03:25:10;;;;;;;46.18;15.28;;;;;;;-4.32;80.22;100205.80;1694319;84;29526;-66
2022/12/18 03:27:41;;;;;;;47.05;16.32;;;;;;;-4.35;80.41;100202.14;1694889;84;25501;-66
2022/12/18 03:30:12;;;;;;;42.17;14.95;;;;;;;-4.35;80.60;100206.16;1694493;84;25414;-66
2022/12/18 03:32:51;;;;;;;;;;;;;;;-4.31;80.44;100201.30;1696944;84;26497;-66
2022/12/18 03:35:22;;;;;;;43.10;13.55;;;;;;;-4.22;81.06;100196.22;1693856;84;25649;-66
2022/12/18 03:37:57;;;;;;;;;;;;;;;-4.08;80.74;100209.34;1697076;84;27462;-68
2022/12/18 03:40:41;;;;;;;35.88;12.95;;;;;;;-4.11;79.89;100207.52;1694375;84;25612;-67
2022/12/18 03:43:25;;;;;;;39.18;13.25;;;;;;;-4.21;79.76;100215.27;1672149;85;25649;-67
2022/12/18 03:45:56;;;;;;;43.23;13.45;;;;;;;-4.29;80.04;100212.14;1670007;85;25768;-67
2022/12/18 03:48:31;;;;;;;46.58;14.20;;;;;;;-4.33;79.99;100220.20;1671359;85;25721;-68
2022/12/18 03:51:08;;;;;;;41.98;14.28;;;;;;;-4.33;80.08;100221.55;1672563;85;28193;-68
2022/12/18 03:53:46;;;;;;;48.02;14.07;;;;;;;-4.23;80.44;100228.52;1671446;85;25484;-68
2022/12/18 03:56:15;;;;;;;44.10;15.40;;;;;;;-4.27;79.49;100232.56;1672064;85;25764;-68
2022/12/18 03:58:44;;;;;;;53.45;16.10;;;;;;;-4.22;80.61;100229.68;1672251;85;25729;-68
2022/12/18 04:01:14;;;;;;;50.90;16.32;;;;;;;-4.11;80.28;100229.78;1672258;85;25766;-67
2022/12/18 04:03:44;;;;;;;48.33;15.83;;;;;;;-4.11;80.11;100228.44;1672521;85;27430;-67
2022/12/18 04:06:12;;;;;;;42.70;15.08;;;;;;;-4.13;79.81;100226.93;1672370;85;25852;-67
2022/12/18 04:08:39;;;;;;;49.80;15.80;;;;;;;-4.10;80.12;100227.91;1672387;85;25685;-68
2022/12/18 04:11:06;;;;;;;45.67;16.45;;;;;;;-4.08;80.41;100228.09;1672391;85;26411;-67
2022/12/18 04:13:36;;;;;;;51.63;15.90;;;;;;;-4.06;80.30;100235.42;1672007;85;25685;-67
2022/12/18 04:16:03;;;;;;;43.80;15.10;;;;;;;-4.09;79.80;100235.77;1672055;85;29516;-68
2022/12/18 04:18:30;;;;;;;43.78;15.50;;;;;;;-4.11;80.02;100241.83;1672424;85;25741;-68
2022/12/18 04:20:57;;;;;;;54.58;16.95;;;;;;;-4.17;79.76;100253.25;1693675;84;25710;-68
2022/12/18 04:23:23;;;;;;;45.48;14.55;;;;;;;-4.25;79.67;100259.97;1694088;84;25762;-68
2022/12/18 04:25:50;;;;;;;41.80;13.70;;;;;;;-4.26;80.35;100262.33;1694160;84;25754;-67
2022/12/18 04:28:16;;;;;;;33.83;11.75;;;;;;;-4.22;79.93;100253.77;1694403;84;27985;-67
2022/12/18 04:30:43;;;;;;;37.05;12.53;;;;;;;-4.19;79.76;100254.77;1694173;84;25727;-68
2022/12/18 04:33:14;;;;;;;38.15;11.97;;;;;;;-4.22;79.91;100254.27;1694405;84;25454;-68
2022/12/18 04:35:42;;;;;;;53.42;16.87;;;;;;;-4.19;79.67;100268.64;1693986;84;25754;-69
2022/12/18 04:38:09;;;;;;;31.75;10.68;;;;;;;-4.22;79.26;100267.16;1694439;84;25624;-69
2022/12/18 04:40:37;;;;;;;43.55;12.70;;;;;;;-4.22;79.61;100267.16;1694191;84;27398;-69
2022/12/18 04:43:05;;;;;;;54.98;17.20;;;;;;;-4.18;79.27;100266.28;1694193;84;25505;-68
2022/12/18 04:45:32;;;;;;;46.20;14.83;;;;;;;-4.13;79.27;100273.78;1691002;84;25492;-68
2022/12/18 04:48:00;;;;;;;42.05;16.95;;;;;;;-4.12;79.13;100282.17;1694269;84;25893;-68
2022/12/18 04:50:28;;;;;;;55.03;16.87;;;;;;;-4.12;79.14;100278.16;1694669;84;25717;-68
2022/12/18 04:52:55;;;;;;;57.13;16.97;;;;;;;-4.15;78.85;100282.00;1694471;84;27438;-67
2022/12/18 04:55:22;;;;;;;61.85;19.00;;;;;;;-4.16;78.97;100290.55;1694058;84;25486;-68
2022/12/18 04:57:48;;;;;;;81.80;21.00;;;;;;;-4.14;78.95;100296.23;1694264;84;25591;-68
2022/12/18 05:00:15;;;;;;;68.92;21.23;;;;;;;-4.13;79.04;100304.58;1694529;84;25719;-69
2022/12/18 05:02:42;;;;;;;62.95;18.10;;;;;;;-4.12;79.17;100304.93;1694683;84;25445;-69
2022/12/18 05:05:09;;;;;;;81.12;23.15;;;;;;;-4.09;79.41;100302.72;1694281;84;27461;-69
2022/12/18 05:07:35;;;;;;;71.90;22.52;;;;;;;-4.03;79.55;100302.54;1694138;84;25626;-70
2022/12/18 05:10:03;;;;;;;1349.73;606.55;;;;;;;-3.95;79.42;100300.28;1694309;84;25698;-70
2022/12/18 05:12:31;;;;;;;103.53;32.50;;;;;;;-3.93;79.13;100300.95;1694419;84;25789;-71
2022/12/18 05:14:57;;;;;;;81.25;28.77;;;;;;;-3.94;78.72;100315.37;1694356;84;25698;-70
2022/12/18 05:17:24;;;;;;;43.33;13.90;;;;;;;-3.93;78.93;100321.05;1694879;84;27437;-70
2022/12/18 05:19:50;;;;;;;42.13;13.98;;;;;;;-3.85;78.94;100329.54;1694760;84;25702;-71
2022/12/18 05:22:16;;;;;;;44.77;14.87;;;;;;;-3.85;78.52;100324.18;1694640;84;25568;-70
2022/12/18 05:24:43;;;;;;;59.67;18.00;;;;;;;-3.95;78.24;100327.07;1694355;84;25676;-71
2022/12/18 05:27:09;;;;;;;44.93;13.65;;;;;;;-4.01;78.32;100317.91;1694770;84;25621;-71
2022/12/18 05:29:35;;;;;;;39.50;13.28;;;;;;;-4.02;78.69;100322.94;1694790;84;27516;-71
2022/12/18 05:32:02;;;;;;;41.65;13.95;;;;;;;-4.02;78.48;100322.94;1694624;84;25797;-71
2022/12/18 05:34:28;;;;;;;37.08;14.03;;;;;;;-4.17;77.59;100325.53;1694627;84;25767;-71
2022/12/18 05:36:54;;;;;;;37.65;14.28;;;;;;;-4.30;78.19;100327.42;1694628;84;25700;-72
2022/12/18 05:39:20;;;;;;;37.23;13.22;;;;;;;-4.37;78.19;100327.80;1689596;84;25673;-72
2022/12/18 05:41:47;;;;;;;40.52;13.90;;;;;;;-4.42;78.66;100331.84;1687353;84;28094;-71
2022/12/18 05:44:13;;;;;;;37.23;13.95;;;;;;;-4.37;78.87;100327.80;1683356;84;25719;-71
2022/12/18 05:46:39;;;;;;;37.93;13.78;;;;;;;-4.44;78.45;100335.67;1694791;84;25677;-73
2022/12/18 05:49:06;;;;;;;35.55;11.95;;;;;;;-4.32;79.33;100338.30;1693774;84;26298;-73
2022/12/18 05:51:32;;;;;;;44.63;16.40;;;;;;;-4.39;77.86;100344.03;1694445;84;25683;-72
2022/12/18 05:53:58;;;;;;;35.10;12.55;;;;;;;-4.50;78.10;100349.24;1694722;84;27461;-73
2022/12/18 05:56:25;;;;;;;36.50;13.53;;;;;;;-4.49;78.51;100347.41;1694645;84;25703;-72
2022/12/18 05:58:54;;;;;;;40.92;12.47;;;;;;;-4.51;78.60;100350.75;1694750;84;25623;-72
2022/12/18 06:01:26;;;;;;;48.58;18.67;;;;;;;-4.47;78.93;100342.70;1694672;84;25757;-72
2022/12/18 06:03:52;;;;;;;42.90;13.48;;;;;;;-4.38;79.28;100344.88;1694608;84;25644;-71
2022/12/18 06:06:22;;;;;;;40.23;13.55;;;;;;;-4.29;78.95;100354.02;1694819;84;28046;-71
2022/12/18 06:08:50;;;;;;;44.80;14.43;;;;;;;-4.29;78.92;100351.34;1694911;84;25591;-70
2022/12/18 06:11:20;;;;;;;34.35;12.55;;;;;;;-4.22;79.15;100354.17;1694714;84;25668;-70
2022/12/18 06:13:55;;;;;;;33.63;13.20;;;;;;;-4.24;78.54;100356.17;1694714;84;25692;-70
2022/12/18 06:16:24;;;;;;;36.15;12.40;;;;;;;-4.22;78.23;100356.00;1694504;84;25711;-70
2022/12/18 06:18:50;;;;;;;37.70;12.65;;;;;;;-4.27;78.54;100351.69;1694737;84;27480;-69
2022/12/18 06:21:16;;;;;;;33.33;11.65;;;;;;;-4.24;78.50;100353.50;1694611;84;25517;-69
2022/12/18 06:23:43;;;;;;;43.10;13.08;;;;;;;-4.37;77.51;100355.41;1694532;84;25591;-69
2022/12/18 06:26:12;;;;;;;34.45;12.15;;;;;;;-4.40;78.24;100359.77;1694325;84;25794;-69
2022/12/18 06:28:38;;;;;;;39.27;13.22;;;;;;;-4.43;77.92;100360.92;1694637;84;25422;-70
2022/12/18 06:31:06;;;;;;;39.48;14.43;;;;;;;-4.48;78.07;100367.80;1694659;84;27473;-69
2022/12/18 06:33:33;;;;;;;40.95;14.73;;;;;;;-4.45;78.51;100372.33;1694639;84;25812;-69
2022/12/18 06:36:10;;;;;;;30.25;10.68;;;;;;;-4.35;78.70;100376.64;1694699;84;25454;-68
2022/12/18 06:38:40;;;;;;;54.77;20.43;;;;;;;-4.44;77.57;100375.32;1694609;84;26540;-67
2022/12/18 06:41:09;;;;;;;34.60;11.30;;;;;;;-4.57;77.91;100379.05;1694644;84;25620;-67
2022/12/18 06:43:36;;;;;;;42.27;14.93;;;;;;;-4.60;78.00;100392.77;1693350;84;27443;-67
2022/12/18 06:46:04;;;;;;;33.13;13.22;;;;;;;-4.60;78.10;100392.77;1694202;84;25657;-67
2022/12/18 06:48:32;;;;;;;32.73;11.45;;;;;;;-4.54;78.52;100395.60;1694325;84;25686;-67
2022/12/18 06:50:58;;;;;;;34.80;11.97;;;;;;;-4.57;77.93;100394.61;1694773;84;25477;-67
2022/12/18 06:53:26;;;;;;;33.95;11.83;;;;;;;-4.58;77.96;100392.09;1694605;84;25658;-66
2022/12/18 06:55:52;;;;;;;49.60;16.40;;;;;;;-4.56;78.38;100404.29;1694315;84;27438;-66
2022/12/18 06:58:19;;;;;;;43.10;13.18;;;;;;;-4.45;78.62;100407.61;1694466;84;25713;-70
2022/12/18 07:00:45;;;;;;;43.00;17.85;;;;;;;-4.37;78.35;100410.27;1694253;84;25732;-68
2022/12/18 07:03:11;;;;;;;39.95;14.58;;;;;;;-4.40;77.46;100415.97;1694289;84;25801;-68
2022/12/18 07:05:41;;;;;;;35.50;12.82;;;;;;;-4.44;77.82;100422.65;1694769;84;25628;-67
2022/12/18 07:08:08;;;;;;;36.80;13.28;;;;;;;-4.43;77.96;100414.97;1694347;84;27431;-67
2022/12/18 07:10:42;;;;;;;39.58;12.68;;;;;;;-4.42;77.86;100413.47;1694225;84;25720;-67
2022/12/18 07:13:09;;;;;;;45.78;13.50;;;;;;;-4.46;77.71;100413.45;1694272;84;25695;-67
2022/12/18 07:15:35;;;;;;;39.60;14.55;;;;;;;-4.46;77.76;100419.33;1694260;84;25813;-66
2022/12/18 07:18:02;;;;;;;262.90;60.50;;;;;;;-4.51;77.88;100417.16;1694349;84;25704;-66
2022/12/18 07:20:28;;;;;;;62.05;19.75;;;;;;;-4.49;77.81;100423.69;1694370;84;27402;-67
2022/12/18 07:22:55;;;;;;;34.63;13.90;;;;;;;-4.51;77.74;100417.66;1694203;84;25420;-67
2022/12/18 07:25:21;;;;;;;41.45;14.78;;;;;;;-4.48;78.04;100427.53;1694211;84;25709;-67
2022/12/18 07:27:48;;;;;;;41.20;14.10;;;;;;;-4.37;78.49;100429.50;1694216;84;25718;-67
2022/12/18 07:30:14;;;;;;;47.65;13.25;;;;;;;-4.26;78.32;100439.02;1694404;84;25478;-67
2022/12/18 07:32:41;;;;;;;34.88;10.90;;;;;;;-4.24;77.76;100445.86;1694319;84;27474;-68
2022/12/18 07:35:07;;;;;;;18.40;5.90;;;;;;;-4.23;77.43;100445.37;1694604;84;25422;-68
2022/12/18 07:37:34;;;;;;;26.17;10.00;;;;;;;-4.34;76.05;100445.22;1694288;84;25667;-68
2022/12/18 07:40:00;;;;;;;29.52;10.82;;;;;;;-4.42;76.82;100447.41;1694262;84;25776;-68
2022/12/18 07:42:32;;;;;;;27.00;8.85;;;;;;;-4.37;77.46;100446.41;1694409;84;25596;-67
2022/12/18 07:45:02;;;;;;;23.55;8.33;;;;;;;-4.41;76.01;100448.58;1694322;84;27431;-67
2022/12/18 07:47:34;;;;;;;28.80;9.30;;;;;;;-4.46;76.41;100447.43;1694668;84;25477;-66
2022/12/18 07:50:01;;;;;;;30.05;10.98;;;;;;;-4.30;77.11;100452.74;1692638;83;25747;-66
2022/12/18 07:52:28;;;;;;;50.40;19.23;;;;;;;-4.21;76.95;100454.89;1693294;84;25880;-66
2022/12/18 07:54:54;;;;;;;37.73;12.20;;;;;;;-4.12;76.90;100453.02;1693007;84;26413;-66
2022/12/18 07:57:20;;;;;;;41.20;13.18;;;;;;;-4.01;77.25;100459.03;1692982;84;27360;-66
2022/12/18 07:59:47;;;;;;;37.53;12.90;;;;;;;-3.87;77.16;100460.97;1692903;83;25768;-66
2022/12/18 08:02:14;;;;;;;44.67;17.17;;;;;;;-3.80;76.95;100451.22;1693606;84;25657;-66
2022/12/18 08:04:40;;;;;;;31.23;11.78;;;;;;;-3.78;75.96;100453.23;1694545;84;25898;-66
2022/12/18 08:07:07;;;;;;;29.12;10.25;;;;;;;-3.80;76.30;100452.56;1694321;84;25510;-66
2022/12/18 08:09:34;;;;;;;48.45;14.23;;;;;;;-3.79;75.62;100458.77;1694289;84;28449;-66
2022/12/18 08:12:00;;;;;;;30.25;10.70;;;;;;;-3.79;75.91;100466.80;1694150;84;25452;-67
2022/12/18 08:14:26;;;;;;;33.73;12.50;;;;;;;-3.78;75.76;100462.61;1694290;84;25429;-70
2022/12/18 08:16:53;;;;;;;27.60;9.00;;;;;;;-3.81;75.39;100460.28;1694237;84;25777;-68
2022/12/18 08:19:19;;;;;;;32.85;12.03;;;;;;;-3.85;75.50;100462.98;1694220;84;25691;-68
2022/12/18 08:21:46;;;;;;;27.35;9.88;;;;;;;-3.82;75.61;100473.36;1694528;84;27361;-67
2022/12/18 08:24:12;;;;;;;27.67;8.58;;;;;;;-3.80;75.23;100469.16;1693111;84;25717;-70
2022/12/18 08:26:39;;;;;;;34.27;12.07;;;;;;;-3.84;74.54;100470.50;1690658;84;25691;-69
2022/12/18 08:29:05;;;;;;;39.67;14.70;;;;;;;-3.88;74.95;100471.37;1690884;84;26078;-66
2022/12/18 08:31:32;;;;;;;33.30;10.38;;;;;;;-3.89;75.04;100474.22;1690589;84;25606;-66
2022/12/18 08:33:59;;;;;;;26.97;9.70;;;;;;;-3.82;75.31;100472.02;1691004;84;27475;-66
2022/12/18 08:36:26;;;;;;;40.90;12.68;;;;;;;-3.91;74.00;100484.58;1690329;84;25620;-66
2022/12/18 08:38:53;;;;;;;27.17;10.38;;;;;;;-3.91;74.82;100483.77;1690937;84;25639;-66
2022/12/18 08:41:20;;;;;;;30.92;10.53;;;;;;;-3.87;74.51;100481.56;1690623;84;25731;-66
2022/12/18 08:46:41;;;;;;;46.65;15.80;;;;;;;-3.81;75.12;100491.59;1690584;84;25655;-66
2022/12/18 08:49:08;;;;;;;51.20;16.67;;;;;;;-3.74;75.10;100495.27;1690917;84;27853;-67
2022/12/18 08:51:35;;;;;;;44.00;14.90;;;;;;;-3.58;75.11;100494.34;1690895;84;25488;-69
2022/12/18 08:54:03;;;;;;;43.38;14.53;;;;;;;-3.52;74.54;100502.19;1690692;84;25727;-69
2022/12/18 08:56:30;;;;;;;41.30;13.83;;;;;;;-3.54;74.40;100501.55;1690657;84;25646;-69
2022/12/18 08:58:57;;;;;;;50.75;16.20;;;;;;;-3.56;74.04;100504.89;1690666;84;27452;-67
2022/12/18 09:01:23;;;;;;;50.67;17.00;;;;;;;-3.59;74.44;100502.06;1690679;84;25675;-67
2022/12/18 09:03:51;;;;;;;46.80;15.48;;;;;;;-3.54;74.66;100497.52;1691229;84;25607;-66
2022/12/18 09:06:19;;;;;;;45.38;15.83;;;;;;;-3.55;74.16;100496.67;1690594;84;25781;-66
2022/12/18 09:08:46;;;;;;;51.30;15.95;;;;;;;-3.50;74.16;100506.03;1691154;84;25418;-66
2022/12/18 09:11:23;;;;;;;40.00;14.73;;;;;;;-3.47;74.43;100501.16;1690695;84;27807;-66
2022/12/18 09:13:50;;;;;;;40.55;15.00;;;;;;;-3.33;74.41;100505.45;1690183;84;25509;-68
2022/12/18 09:16:19;;;;;;;52.98;17.10;;;;;;;-3.23;73.94;100511.42;1690596;84;25501;-66
2022/12/18 09:18:47;;;;;;;62.80;19.48;;;;;;;-3.09;74.41;100513.01;1690988;84;25829;-66
2022/12/18 09:21:18;;;;;;;65.00;19.77;;;;;;;-2.87;73.86;100513.20;1690590;84;25710;-66
2022/12/18 09:23:44;;;;;;;;;;;;;;;-2.70;73.95;100517.45;1693331;84;27477;-65
2022/12/18 09:26:11;;;;;;;54.15;15.13;;;;;;;-2.46;73.02;100515.57;1664843;84;25776;-66
2022/12/18 09:28:38;;;;;;;45.48;15.58;;;;;;;-2.34;72.31;100507.91;1690784;84;25413;-65
2022/12/18 09:31:07;;;;;;;50.25;16.48;;;;;;;-2.14;72.73;100507.38;1690565;84;25747;-66
2022/12/18 09:33:36;;;;;;;50.05;16.15;;;;;;;-1.90;72.50;100502.25;1691023;84;25754;-66
2022/12/18 09:36:06;;;;;;;40.40;14.75;;;;;;;-1.66;71.73;100503.50;1690725;84;27648;-67
2022/12/18 09:38:34;;;;;;;47.95;17.35;;;;;;;-1.45;70.93;100503.22;1690917;84;25772;-66
2022/12/18 09:41:21;;;;;;;46.73;16.95;;;;;;;-1.23;70.80;100499.24;1690588;84;25453;-66
2022/12/18 09:43:56;;;;;;;57.30;19.50;;;;;;;-1.16;70.21;100499.64;1673835;84;25806;-67
2022/12/18 09:46:36;;;;;;;52.38;20.08;;;;;;;-0.89;70.26;100506.64;1690648;84;25734;-67
2022/12/18 09:49:07;;;;;;;41.53;14.95;;;;;;;-0.60;70.44;100503.17;1691130;84;28063;-66
2022/12/18 09:51:38;;;;;;;38.10;14.07;;;;;;;-0.18;69.58;100507.32;1690996;84;25979;-64
2022/12/18 09:54:09;;;;;;;34.55;14.00;;;;;;;0.12;69.14;100507.13;1691168;84;25523;-63
2022/12/18 09:56:41;;;;;;;52.62;19.05;;;;;;;0.44;68.94;100504.80;1690112;84;27902;-64
2022/12/18 09:59:10;;;;;;;;;;;;;;;0.83;67.99;100508.34;1693144;84;25712;-63
2022/12/18 10:01:36;;;;;;;39.60;15.25;;;;;;;1.25;66.78;100506.38;1688966;84;29685;-62
2022/12/18 10:04:04;;;;;;;31.60;13.83;;;;;;;1.66;66.56;100498.78;1690535;84;25594;-62
2022/12/18 10:06:54;;;;;;;38.45;15.63;;;;;;;2.05;66.14;100502.50;1690583;84;25701;-63
2022/12/18 10:09:49;;;;;;;39.98;16.20;;;;;;;2.48;64.38;100505.70;1676726;84;25762;-61
2022/12/18 10:12:39;;;;;;;33.60;14.75;;;;;;;2.95;63.80;100497.36;1690865;84;25435;-61
2022/12/18 10:15:37;;;;;;;52.43;19.48;;;;;;;3.45;62.33;100495.76;1690106;84;27491;-61
2022/12/18 10:18:31;;;;;;;36.48;15.00;;;;;;;3.82;62.95;100497.75;1690810;84;25635;-60
2022/12/18 10:21:11;;;;;;;35.23;15.40;;;;;;;4.05;60.87;100494.91;1690660;84;25474;-61
2022/12/18 10:23:52;;;;;;;35.48;17.35;;;;;;;4.19;60.27;100494.77;1690726;84;25702;-62
2022/12/18 10:26:18;;;;;;;35.25;14.45;;;;;;;4.28;59.91;100486.62;1690218;84;25677;-67
2022/12/18 10:28:45;;;;;;;32.48;16.35;;;;;;;4.33;57.43;100485.95;1690719;84;27268;-67
2022/12/18 10:31:19;;;;;;;34.30;15.10;;;;;;;4.52;60.14;100488.14;1690541;84;25687;-67
2022/12/18 10:33:46;;;;;;;68.70;37.08;;;;;;;4.77;58.91;100489.38;1689803;84;25742;-68
2022/12/18 10:36:14;;;;;;;30.90;15.32;;;;;;;5.15;59.35;100484.66;1690540;84;25709;-67
2022/12/18 10:38:40;;;;;;;76.97;42.15;;;;;;;5.36;58.61;100487.88;1691052;84;25647;-67
2022/12/18 10:41:25;;;;;;;44.48;20.70;;;;;;;5.75;59.30;100476.59;1690606;84;27576;-67
2022/12/18 10:44:21;;;;;;;39.38;18.82;;;;;;;6.07;56.95;100475.41;1690375;84;25592;-66
2022/12/18 10:46:50;;;;;;;34.60;15.68;;;;;;;6.07;56.87;100467.24;1591424;89;25730;-65
2022/12/18 10:49:27;;;;;;;35.52;16.52;;;;;;;5.89;54.92;100466.30;1591492;90;25656;-65
2022/12/18 10:52:17;;;;;;;39.15;19.37;;;;;;;5.99;55.32;100470.31;1590795;90;25763;-65
2022/12/18 10:54:55;;;;;;;48.52;23.40;;;;;;;6.01;55.16;100460.00;1591411;90;27412;-66
2022/12/18 10:57:35;;;;;;;30.37;14.75;;;;;;;6.27;56.19;100458.69;1589751;90;25762;-67
2022/12/18 11:00:30;;;;;;;34.92;17.42;;;;;;;6.28;50.69;100452.17;1591548;90;26530;-68
2022/12/18 11:02:58;;;;;;;55.33;24.77;;;;;;;6.19;52.47;100451.44;1591439;90;25811;-70
2022/12/18 11:05:33;;;;;;;45.33;21.85;;;;;;;5.72;49.51;100453.94;1591309;90;25788;-72
2022/12/18 11:08:01;;;;;;;39.92;19.48;;;;;;;5.58;53.11;100462.85;1591492;90;28109;-69
2022/12/18 11:10:34;;;;;;;40.98;20.85;;;;;;;5.59;53.28;100459.61;1591310;90;25718;-69
2022/12/18 11:13:20;;;;;;;36.08;18.20;;;;;;;5.56;51.94;100456.00;1591391;90;25529;-68
2022/12/18 11:15:48;;;;;;;35.30;19.50;;;;;;;5.60;51.98;100442.22;1591417;90;25800;-68
2022/12/18 11:18:19;;;;;;;35.83;19.52;;;;;;;5.61;51.95;100438.42;1591559;90;25679;-68
2022/12/18 11:20:53;;;;;;;40.35;18.02;;;;;;;5.49;49.63;100441.98;1591127;90;28268;-67
2022/12/18 11:23:23;;;;;;;46.30;21.80;;;;;;;4.98;48.09;100439.65;1642130;84;25909;-67
2022/12/18 11:25:58;;;;;;;38.13;19.35;;;;;;;4.46;50.43;100445.06;1692253;84;32243;-67
2022/12/18 11:28:50;;;;;;;36.93;17.85;;;;;;;4.69;51.75;100441.34;1693924;84;26725;-67
2022/12/18 11:31:24;;;;;;;45.55;20.77;;;;;;;4.74;51.45;100453.16;1693705;84;25690;-68
2022/12/18 11:34:08;;;;;;;50.83;26.02;;;;;;;4.43;48.46;100446.87;1694020;84;27377;-69
2022/12/18 11:36:42;;;;;;;47.23;22.55;;;;;;;4.01;48.71;100458.44;1693447;84;25683;-70
2022/12/18 11:39:38;;;;;;;56.42;27.98;;;;;;;3.75;51.06;100453.05;1692337;84;25655;-71